Time;durP1;ratioP1;P1;durP2;ratioP2;P2;SDS_P1;SDS_P2;PMS_P1;PMS_P2;Temp;Humidity;BMP_temperature;BMP_pressure;BME280_temperature;BME280_humidity;BME280_pressure;Samples;Min_cycle;Max_cycle;Signal;HPM_P1;HPM_P2
2022/05/08 00:00:15;;;;;;;25.60;5.03;;;9.80;99.90;;;;;;5095015;28;20036;-81
2022/05/08 00:02:41;;;;;;;17.65;4.20;;;9.80;99.90;;;;;;5097333;28;20391;-81
2022/05/08 00:05:08;;;;;;;27.50;4.88;;;9.80;99.90;;;;;;5079119;28;20040;-80
2022/05/08 00:07:34;;;;;;;22.25;4.63;;;9.80;99.90;;;;;;5086276;28;20130;-81
2022/05/08 00:10:00;;;;;;;24.27;4.43;;;9.80;99.90;;;;;;5095553;28;20127;-81
2022/05/08 00:12:25;;;;;;;23.50;4.75;;;9.70;99.90;;;;;;5089432;28;20499;-81
2022/05/08 00:14:51;;;;;;;21.98;4.05;;;9.60;99.90;;;;;;5095955;28;20035;-82
2022/05/08 00:17:18;;;;;;;17.75;4.13;;;10.50;99.90;;;;;;5096486;28;20055;-82
2022/05/08 00:19:47;;;;;;;24.02;4.15;;;9.50;99.90;;;;;;5077497;28;20035;-81
2022/05/08 00:22:13;;;;;;;20.05;5.38;;;9.50;99.90;;;;;;5110346;28;20495;-81
2022/05/08 00:24:39;;;;;;;16.20;4.05;;;9.60;99.90;;;;;;5085658;28;20129;-81
2022/05/08 00:27:06;;;;;;;19.35;3.80;;;9.40;99.90;;;;;;5062727;28;20035;-81
2022/05/08 00:29:32;;;;;;;16.23;3.60;;;9.30;99.90;;;;;;5088868;28;20047;-81
2022/05/08 00:31:57;;;;;;;19.48;4.40;;;9.30;99.90;;;;;;5076382;28;20032;-81
2022/05/08 00:34:24;;;;;;;22.30;4.30;;;9.20;99.90;;;;;;5075611;28;20068;-81
2022/05/08 00:36:49;;;;;;;21.33;4.43;;;9.20;99.90;;;;;;5078289;28;20040;-81
2022/05/08 00:39:19;;;;;;;22.70;4.70;;;9.10;99.90;;;;;;5066613;28;20103;-81
2022/05/08 00:41:48;;;;;;;24.35;4.38;;;9.10;99.90;;;;;;5092431;28;20548;-81
2022/05/08 00:44:14;;;;;;;26.08;4.50;;;9.10;99.90;;;;;;5091575;28;20036;-82
2022/05/08 00:46:40;;;;;;;24.58;4.35;;;9.30;99.90;;;;;;5071697;28;20051;-81
2022/05/08 00:49:06;;;;;;;19.02;4.38;;;9.00;99.90;;;;;;5057434;28;20096;-81
2022/05/08 00:51:32;;;;;;;22.20;4.60;;;9.00;99.90;;;;;;5092380;28;20465;-81
2022/05/08 00:54:02;;;;;;;17.95;4.80;;;9.00;99.90;;;;;;5106916;28;20036;-81
2022/05/08 00:56:28;;;;;;;19.20;4.32;;;9.00;99.90;;;;;;5103386;28;20514;-81
2022/05/08 00:58:55;;;;;;;25.98;4.32;;;8.90;99.90;;;;;;5077371;28;20127;-81
2022/05/08 01:01:21;;;;;;;20.40;4.43;;;8.90;99.90;;;;;;5057636;28;20039;-82
2022/05/08 01:03:47;;;;;;;19.42;4.10;;;9.50;99.90;;;;;;5072771;28;20039;-82
2022/05/08 01:06:15;;;;;;;19.25;4.15;;;8.90;99.90;;;;;;5072894;28;20085;-81
2022/05/08 01:08:50;;;;;;;18.13;4.15;;;8.90;99.90;;;;;;5083452;28;20039;-81
2022/05/08 01:11:17;;;;;;;19.45;4.75;;;8.90;99.90;;;;;;5082563;28;20047;-81
2022/05/08 01:13:45;;;;;;;24.42;5.05;;;8.80;99.90;;;;;;5072702;28;20036;-82
2022/05/08 01:16:18;;;;;;;20.58;4.53;;;8.80;99.90;;;;;;5090456;28;20043;-82
2022/05/08 01:18:46;;;;;;;20.00;4.35;;;8.80;99.90;;;;;;5092556;28;20055;-81
2022/05/08 01:21:17;;;;;;;22.88;4.70;;;8.80;99.90;;;;;;5074778;28;20160;-81
2022/05/08 01:23:45;;;;;;;20.50;4.18;;;8.70;99.90;;;;;;5094383;28;20104;-80
2022/05/08 01:26:12;;;;;;;14.38;3.70;;;8.60;99.90;;;;;;5075000;28;20040;-82
2022/05/08 01:28:38;;;;;;;19.58;3.85;;;8.60;99.90;;;;;;5102517;28;20491;-81
2022/05/08 01:31:04;;;;;;;16.23;4.10;;;8.50;99.90;;;;;;5059037;28;20054;-81
2022/05/08 01:33:31;;;;;;;18.35;4.20;;;8.40;99.90;;;;;;5073119;28;20028;-80
2022/05/08 01:35:58;;;;;;;21.55;4.40;;;8.40;99.90;;;;;;5075886;28;20036;-80
2022/05/08 01:38:24;;;;;;;19.88;4.07;;;8.30;99.90;;;;;;5077537;28;20032;-80
2022/05/08 01:40:50;;;;;;;19.73;4.32;;;8.30;99.90;;;;;;5090147;28;20399;-81
2022/05/08 01:43:16;;;;;;;20.83;4.28;;;8.30;99.90;;;;;;5109701;28;20043;-80
2022/05/08 01:45:42;;;;;;;18.15;4.25;;;8.30;99.90;;;;;;5092799;28;20043;-80
2022/05/08 01:48:23;;;;;;;22.75;4.15;;;8.30;99.90;;;;;;5092308;28;20043;-80
2022/05/08 01:50:53;;;;;;;18.38;4.55;;;8.20;99.90;;;;;;5071960;28;20055;-80
2022/05/08 01:53:20;;;;;;;18.85;4.47;;;8.20;99.90;;;;;;5100164;28;20096;-80
2022/05/08 01:55:49;;;;;;;17.88;4.60;;;8.50;99.90;;;;;;5072341;28;20047;-80
2022/05/08 01:58:18;;;;;;;17.70;4.18;;;7.90;99.90;;;;;;5083240;28;20075;-81
2022/05/08 02:00:45;;;;;;;18.20;4.35;;;7.80;99.90;;;;;;5068489;28;20045;-81
2022/05/08 02:03:12;;;;;;;21.17;4.38;;;8.10;99.90;;;;;;5109715;28;20055;-80
2022/05/08 02:05:40;;;;;;;21.52;4.47;;;8.00;99.90;;;;;;5093063;28;20027;-81
2022/05/08 02:08:06;;;;;;;21.75;4.65;;;8.00;99.90;;;;;;5070318;28;20174;-81
2022/05/08 02:10:32;;;;;;;22.10;5.35;;;7.90;99.90;;;;;;5083678;28;20043;-81
2022/05/08 02:12:57;;;;;;;23.27;4.55;;;8.80;99.90;;;;;;5086254;28;20051;-81
2022/05/08 02:15:29;;;;;;;22.80;4.82;;;7.90;99.90;;;;;;5074522;28;20075;-80
2022/05/08 02:17:58;;;;;;;19.65;4.57;;;7.80;99.90;;;;;;5111115;28;20083;-81
2022/05/08 02:20:24;;;;;;;18.40;4.65;;;7.80;99.90;;;;;;5084549;28;20472;-81
2022/05/08 02:22:49;;;;;;;18.23;4.55;;;7.80;99.90;;;;;;5073337;28;20375;-80
2022/05/08 02:25:15;;;;;;;19.30;4.40;;;7.80;99.90;;;;;;5075958;28;20040;-80
2022/05/08 02:27:42;;;;;;;17.92;4.63;;;7.80;99.90;;;;;;5060450;28;20031;-80
2022/05/08 02:30:09;;;;;;;19.30;4.25;;;7.70;99.90;;;;;;5070933;28;20383;-81
2022/05/08 02:32:37;;;;;;;18.48;4.72;;;7.70;99.90;;;;;;5076183;28;20040;-81
2022/05/08 02:35:04;;;;;;;21.30;5.00;;;7.60;99.90;;;;;;5075616;28;20054;-81
2022/05/08 02:37:30;;;;;;;25.48;5.50;;;7.60;99.90;;;;;;5065562;28;20040;-81
2022/05/08 02:39:56;;;;;;;19.23;4.90;;;7.60;99.90;;;;;;5074703;28;20038;-80
2022/05/08 02:42:21;;;;;;;21.27;4.75;;;7.60;99.90;;;;;;5058419;28;20040;-81
2022/05/08 02:44:47;;;;;;;17.95;4.47;;;7.60;99.90;;;;;;5077005;28;20055;-81
2022/05/08 02:47:13;;;;;;;24.27;5.10;;;7.50;99.90;;;;;;5076799;28;20043;-81
2022/05/08 02:49:38;;;;;;;17.80;4.45;;;7.60;99.90;;;;;;5075214;28;20036;-80
2022/05/08 02:52:05;;;;;;;18.42;4.60;;;7.60;99.90;;;;;;5110767;28;20495;-81
2022/05/08 02:54:30;;;;;;;16.05;5.05;;;7.60;99.90;;;;;;5076287;28;20050;-80
2022/05/08 02:59:41;;;;;;;19.52;4.85;;;7.50;99.90;;;;;;5087827;28;20040;-81
2022/05/08 03:02:07;;;;;;;18.05;4.95;;;7.50;99.90;;;;;;5093787;28;20044;-80
2022/05/08 03:04:33;;;;;;;19.10;5.30;;;7.70;99.90;;;;;;5073566;28;20063;-81
2022/05/08 03:07:02;;;;;;;20.17;4.60;;;7.40;99.90;;;;;;5103804;28;20046;-81
2022/05/08 03:09:29;;;;;;;15.88;4.60;;;7.40;99.90;;;;;;5071122;28;20078;-80
2022/05/08 03:11:55;;;;;;;19.48;5.25;;;8.10;99.90;;;;;;5076956;28;20405;-80
2022/05/08 03:14:20;;;;;;;21.38;5.30;;;7.90;99.90;;;;;;5057131;28;20044;-80
2022/05/08 03:16:47;;;;;;;18.98;5.07;;;7.40;99.90;;;;;;5077000;28;20035;-81
2022/05/08 03:19:13;;;;;;;24.60;5.00;;;7.30;99.90;;;;;;5105918;28;20063;-80
2022/05/08 03:21:40;;;;;;;18.77;4.65;;;7.30;99.90;;;;;;5086484;28;20112;-80
2022/05/08 03:24:07;;;;;;;21.58;5.13;;;7.30;99.90;;;;;;5066594;28;20039;-80
2022/05/08 03:26:34;;;;;;;23.58;5.03;;;7.20;99.90;;;;;;5095003;28;20110;-85
2022/05/08 03:28:59;;;;;;;21.30;5.50;;;7.20;99.90;;;;;;5077206;28;20036;-85
2022/05/08 03:31:25;;;;;;;24.25;5.30;;;7.20;99.90;;;;;;5075272;28;20043;-85
2022/05/08 03:33:51;;;;;;;17.23;5.45;;;7.10;99.90;;;;;;5096345;28;20035;-85
2022/05/08 03:36:17;;;;;;;18.00;5.70;;;7.10;99.90;;;;;;5063462;28;20101;-85
2022/05/08 03:38:45;;;;;;;19.05;5.13;;;7.10;99.90;;;;;;5112224;28;20089;-85
2022/05/08 03:41:15;;;;;;;21.85;5.70;;;7.10;99.90;;;;;;5097546;28;20471;-85
2022/05/08 03:43:42;;;;;;;28.10;5.75;;;7.00;99.90;;;;;;5078428;28;20039;-85
2022/05/08 03:46:09;;;;;;;22.00;5.53;;;6.70;99.90;;;;;;5094996;28;20433;-86
2022/05/08 03:48:36;;;;;;;19.20;5.22;;;7.00;99.90;;;;;;5080640;28;20050;-85
2022/05/08 03:51:02;;;;;;;19.23;5.28;;;6.90;99.90;;;;;;5078995;28;20051;-86
2022/05/08 03:53:28;;;;;;;20.80;4.88;;;6.90;99.90;;;;;;5097126;28;20567;-85
2022/05/08 03:55:53;;;;;;;15.23;5.05;;;6.90;99.90;;;;;;5062330;28;20039;-85
2022/05/08 03:58:19;;;;;;;21.90;5.43;;;7.50;99.90;;;;;;5096730;28;20048;-86
2022/05/08 04:00:45;;;;;;;21.15;5.07;;;6.90;99.90;;;;;;5055986;28;20071;-86
2022/05/08 04:03:10;;;;;;;16.40;4.97;;;6.90;99.90;;;;;;5112523;28;20380;-86
2022/05/08 04:05:36;;;;;;;19.65;5.45;;;6.90;99.90;;;;;;5093104;28;20039;-86
2022/05/08 04:08:02;;;;;;;18.00;5.20;;;6.90;99.90;;;;;;5078795;28;20395;-86
2022/05/08 04:10:28;;;;;;;21.90;5.57;;;6.90;99.90;;;;;;5076694;28;20165;-85
2022/05/08 04:12:54;;;;;;;22.02;5.35;;;6.90;99.90;;;;;;5080173;28;20395;-85
2022/05/08 04:18:04;;;;;;;19.35;5.55;;;6.80;99.90;;;;;;5095929;28;20076;-86
2022/05/08 04:20:30;;;;;;;23.92;5.32;;;6.80;99.90;;;;;;5106046;28;20051;-86
2022/05/08 04:25:40;;;;;;;17.60;4.63;;;6.80;99.90;;;;;;5082127;28;20412;-86
2022/05/08 04:28:06;;;;;;;24.30;5.50;;;6.80;99.90;;;;;;5074812;28;20048;-85
2022/05/08 04:30:31;;;;;;;17.13;5.15;;;6.80;99.90;;;;;;5077275;28;20036;-85
2022/05/08 04:32:58;;;;;;;21.27;5.30;;;7.00;99.90;;;;;;5078146;28;20067;-85
2022/05/08 04:35:23;;;;;;;19.02;5.45;;;8.10;99.90;;;;;;5079146;28;20040;-86
2022/05/08 04:37:49;;;;;;;22.63;5.60;;;6.80;99.90;;;;;;5075680;28;20116;-86
2022/05/08 04:40:15;;;;;;;18.88;5.95;;;6.70;99.90;;;;;;5063064;28;20525;-86
2022/05/08 04:42:40;;;;;;;22.58;5.93;;;6.80;99.90;;;;;;5095987;28;20543;-86
2022/05/08 04:45:07;;;;;;;19.67;5.10;;;6.90;99.90;;;;;;5092529;28;20046;-85
2022/05/08 04:47:33;;;;;;;20.13;5.18;;;6.80;99.90;;;;;;5059830;28;20035;-85
2022/05/08 04:49:58;;;;;;;20.15;5.80;;;6.80;99.90;;;;;;5087359;28;20039;-86
2022/05/08 04:52:24;;;;;;;14.95;5.32;;;6.70;99.90;;;;;;5061547;28;20048;-86
2022/05/08 04:54:50;;;;;;;19.10;6.10;;;6.70;99.90;;;;;;5075260;28;20040;-85
2022/05/08 04:57:15;;;;;;;22.55;6.10;;;6.70;99.90;;;;;;5086012;28;20112;-86
2022/05/08 04:59:41;;;;;;;18.70;4.95;;;7.10;99.90;;;;;;5096348;28;20125;-86
2022/05/08 05:02:08;;;;;;;23.95;6.10;;;6.90;99.90;;;;;;5095411;28;20036;-86
2022/05/08 05:04:36;;;;;;;15.57;5.05;;;6.80;99.90;;;;;;5089383;28;20046;-86
2022/05/08 05:07:02;;;;;;;22.10;6.03;;;7.40;99.90;;;;;;5073068;28;20039;-86
2022/05/08 05:09:28;;;;;;;27.75;6.68;;;6.90;99.90;;;;;;5096423;28;20100;-86
2022/05/08 05:11:54;;;;;;;23.17;5.63;;;6.90;99.90;;;;;;5076783;28;20036;-85
2022/05/08 05:14:20;;;;;;;18.48;5.47;;;7.40;99.90;;;;;;5091809;28;20076;-85
2022/05/08 05:16:46;;;;;;;16.48;4.63;;;6.90;99.90;;;;;;5094778;28;20126;-85
2022/05/08 05:19:12;;;;;;;22.90;5.78;;;7.00;99.90;;;;;;5092332;28;20127;-86
2022/05/08 05:21:38;;;;;;;21.02;5.28;;;7.00;99.90;;;;;;5090775;28;20692;-86
2022/05/08 05:24:04;;;;;;;18.58;5.00;;;8.00;99.90;;;;;;5090061;28;20134;-86
2022/05/08 05:26:30;;;;;;;24.20;5.50;;;7.00;99.90;;;;;;5095512;28;20031;-86
2022/05/08 05:28:55;;;;;;;23.23;5.97;;;7.90;99.90;;;;;;5094709;28;20036;-86
2022/05/08 05:31:21;;;;;;;24.08;5.93;;;7.10;99.90;;;;;;5075646;28;20542;-85
2022/05/08 05:33:47;;;;;;;16.42;4.53;;;7.50;99.90;;;;;;5081759;28;20079;-85
2022/05/08 05:36:13;;;;;;;19.63;4.85;;;7.20;99.90;;;;;;5072179;28;20040;-86
2022/05/08 05:38:39;;;;;;;15.77;5.03;;;8.20;99.90;;;;;;5078826;28;20044;-85
2022/05/08 05:41:05;;;;;;;20.08;5.50;;;7.20;99.90;;;;;;5094990;28;20069;-86
2022/05/08 05:43:33;;;;;;;17.10;5.47;;;7.20;99.90;;;;;;5083742;28;20043;-85
2022/05/08 05:48:43;;;;;;;16.30;4.72;;;7.30;99.90;;;;;;5111065;28;20048;-86
2022/05/08 05:51:09;;;;;;;24.00;4.88;;;7.40;99.90;;;;;;5073216;28;20505;-86
2022/05/08 05:53:35;;;;;;;15.18;4.65;;;7.50;99.90;;;;;;5075049;28;20039;-86
2022/05/08 05:56:01;;;;;;;19.05;4.82;;;7.60;99.90;;;;;;5091042;28;20043;-85
2022/05/08 05:58:27;;;;;;;18.33;4.40;;;8.30;99.90;;;;;;5090674;28;20049;-86
2022/05/08 06:00:53;;;;;;;17.05;4.90;;;7.70;99.90;;;;;;5075140;28;20032;-85
2022/05/08 06:03:19;;;;;;;16.25;4.00;;;7.80;99.90;;;;;;5093230;28;20421;-86
2022/05/08 06:05:45;;;;;;;17.17;5.10;;;7.90;99.90;;;;;;5083083;28;20484;-86
2022/05/08 06:08:10;;;;;;;17.92;5.05;;;8.00;99.90;;;;;;5053962;28;20054;-85
2022/05/08 06:10:36;;;;;;;15.30;4.07;;;8.10;99.90;;;;;;5079922;28;20548;-86
2022/05/08 06:13:02;;;;;;;15.05;3.95;;;8.30;99.90;;;;;;5077870;28;20092;-86
2022/05/08 06:15:28;;;;;;;13.05;4.05;;;8.40;99.90;;;;;;5077417;28;20059;-86
2022/05/08 06:17:55;;;;;;;18.38;4.00;;;8.50;99.90;;;;;;5091711;28;20083;-86
2022/05/08 06:20:21;;;;;;;17.02;3.55;;;8.50;99.90;;;;;;5094566;28;20387;-86
2022/05/08 06:22:47;;;;;;;17.67;3.38;;;8.80;99.90;;;;;;5077375;28;20040;-86
2022/05/08 06:25:12;;;;;;;11.23;3.65;;;8.90;99.90;;;;;;5093927;28;20046;-87
2022/05/08 06:27:38;;;;;;;11.40;3.45;;;9.00;99.90;;;;;;5068932;28;20047;-86
2022/05/08 06:30:06;;;;;;;9.73;2.92;;;9.20;99.90;;;;;;5065551;28;20047;-86
2022/05/08 06:32:31;;;;;;;13.93;3.25;;;9.40;99.90;;;;;;5057004;28;20098;-86
2022/05/08 06:34:57;;;;;;;12.48;3.60;;;9.70;99.90;;;;;;5075119;28;20044;-83
2022/05/08 06:37:23;;;;;;;11.13;3.67;;;9.90;99.90;;;;;;5090060;28;20040;-84
2022/05/08 06:39:48;;;;;;;15.60;3.00;;;10.40;99.90;;;;;;5115063;28;20384;-79
2022/05/08 06:42:14;;;;;;;8.50;3.03;;;10.70;99.90;;;;;;5062812;28;20036;-79
2022/05/08 06:44:40;;;;;;;15.80;3.50;;;11.10;99.90;;;;;;5090983;28;20538;-79
2022/05/08 06:47:06;;;;;;;9.75;2.70;;;11.50;99.90;;;;;;5088462;28;20044;-79
2022/05/08 06:49:32;;;;;;;11.30;2.22;;;11.80;99.90;;;;;;5068460;28;20430;-80
2022/05/08 06:51:58;;;;;;;10.02;2.70;;;12.10;99.90;;;;;;5082902;28;20118;-79
2022/05/08 06:54:26;;;;;;;8.25;2.65;;;12.20;99.90;;;;;;5070771;28;20403;-81
2022/05/08 06:56:53;;;;;;;11.02;2.22;;;12.40;99.90;;;;;;5090313;28;20040;-80
2022/05/08 07:02:04;;;;;;;8.20;2.30;;;13.00;99.90;;;;;;5106996;28;20036;-78
2022/05/08 07:04:30;;;;;;;9.95;2.60;;;13.30;99.90;;;;;;5077288;28;20077;-78
2022/05/08 07:06:55;;;;;;;10.10;2.60;;;13.40;99.90;;;;;;5093568;28;20031;-78
2022/05/08 07:09:21;;;;;;;7.90;2.10;;;13.40;99.90;;;;;;5075594;28;20089;-80
2022/05/08 07:11:47;;;;;;;8.55;2.63;;;13.30;99.90;;;;;;5078106;28;20495;-78
2022/05/08 07:14:14;;;;;;;12.38;2.20;;;13.10;99.90;;;;;;5088890;28;20127;-78
2022/05/08 07:16:40;;;;;;;9.73;2.42;;;13.00;99.90;;;;;;5076942;28;20076;-78
2022/05/08 07:19:06;;;;;;;11.13;2.53;;;12.90;99.90;;;;;;5076010;28;20083;-77
2022/05/08 07:21:31;;;;;;;9.35;2.72;;;12.80;99.90;;;;;;5070198;28;20036;-78
2022/05/08 07:23:57;;;;;;;7.25;2.05;;;12.80;99.90;;;;;;5078873;28;20036;-77
2022/05/08 07:26:23;;;;;;;10.43;2.30;;;12.50;99.90;;;;;;5060145;28;20036;-78
2022/05/08 07:28:49;;;;;;;9.48;2.53;;;12.30;99.90;;;;;;5075570;28;20032;-78
2022/05/08 07:31:15;;;;;;;8.73;2.05;;;12.10;99.90;;;;;;5062398;28;20499;-79
2022/05/08 07:33:40;;;;;;;12.40;2.20;;;12.00;99.90;;;;;;5061855;28;20053;-78
2022/05/08 07:36:13;;;;;;;12.70;2.38;;;11.80;99.90;;;;;;5096124;28;20123;-77
2022/05/08 07:38:44;;;;;;;7.47;2.13;;;11.60;99.90;;;;;;5110166;28;20126;-78
2022/05/08 07:41:11;;;;;;;8.27;2.20;;;11.60;99.90;;;;;;5075835;28;20040;-78
2022/05/08 07:43:38;;;;;;;10.27;2.20;;;11.50;99.90;;;;;;5087392;28;20046;-79
2022/05/08 07:46:04;;;;;;;13.82;2.97;;;11.40;99.90;;;;;;5110432;28;20085;-81
2022/05/08 07:48:30;;;;;;;9.02;2.10;;;11.40;99.90;;;;;;5075982;28;20093;-82
2022/05/08 07:50:59;;;;;;;9.82;2.28;;;11.40;99.90;;;;;;5095749;28;20067;-78
2022/05/08 07:53:26;;;;;;;8.32;2.13;;;11.40;99.90;;;;;;5089827;28;20032;-78
2022/05/08 07:55:52;;;;;;;12.80;2.17;;;11.30;99.90;;;;;;5095262;28;20484;-79
2022/05/08 07:58:21;;;;;;;7.57;2.10;;;11.50;99.90;;;;;;5075929;28;20039;-78
2022/05/08 08:00:49;;;;;;;4.70;1.95;;;11.70;99.90;;;;;;5059519;28;20036;-84
2022/05/08 08:03:18;;;;;;;5.32;1.65;;;12.00;99.90;;;;;;5087914;28;20027;-78
2022/05/08 08:05:44;;;;;;;7.90;2.28;;;12.40;99.90;;;;;;5070037;28;20119;-80
2022/05/08 08:08:10;;;;;;;9.98;2.28;;;12.80;99.90;;;;;;5075468;28;20039;-82
2022/05/08 08:10:35;;;;;;;11.93;2.20;;;13.10;99.90;;;;;;5096489;28;20062;-81
2022/05/08 08:13:01;;;;;;;10.80;2.13;;;13.40;99.90;;;;;;5075773;28;20063;-84
2022/05/08 08:15:27;;;;;;;9.07;2.40;;;13.70;99.90;;;;;;5090076;28;20054;-83
2022/05/08 08:17:53;;;;;;;8.68;2.03;;;13.90;99.90;;;;;;5061407;28;20048;-85
2022/05/08 08:20:19;;;;;;;8.15;1.90;;;14.10;99.90;;;;;;5074826;28;20119;-79
2022/05/08 08:22:45;;;;;;;8.75;2.13;;;14.20;99.90;;;;;;5072907;28;20027;-80
2022/05/08 08:25:10;;;;;;;7.53;2.25;;;14.40;99.90;;;;;;5076378;28;20067;-80
2022/05/08 08:27:36;;;;;;;9.35;1.88;;;14.70;99.90;;;;;;5094101;28;20665;-81
2022/05/08 08:30:03;;;;;;;7.28;1.77;;;14.80;99.90;;;;;;5054632;28;20124;-79
2022/05/08 08:32:31;;;;;;;7.32;1.67;;;14.80;99.90;;;;;;5075855;28;20043;-80
2022/05/08 08:34:57;;;;;;;8.20;2.00;;;14.90;99.90;;;;;;5112332;28;20039;-81
2022/05/08 08:37:23;;;;;;;7.03;1.80;;;15.10;99.90;;;;;;5094909;28;20044;-80
2022/05/08 08:39:49;;;;;;;5.38;2.05;;;15.10;99.50;;;;;;5093608;28;20051;-80
2022/05/08 08:42:29;;;;;;;5.72;1.58;;;15.30;98.50;;;;;;5075998;28;20116;-80
2022/05/08 08:48:00;;;;;;;7.53;1.80;;;15.30;97.60;;;;;;5112311;28;20047;-81
2022/05/08 08:50:27;;;;;;;8.93;1.83;;;15.20;96.60;;;;;;5095557;28;20039;-81
2022/05/08 08:52:58;;;;;;;6.30;1.75;;;14.90;96.90;;;;;;5113243;28;20515;-81
2022/05/08 08:55:24;;;;;;;7.82;2.47;;;14.70;96.80;;;;;;5085599;28;20048;-80
2022/05/08 08:57:50;;;;;;;6.55;1.65;;;14.60;96.70;;;;;;5095324;28;20054;-80
2022/05/08 09:00:21;;;;;;;11.25;2.28;;;14.60;96.10;;;;;;5096073;28;20031;-81
2022/05/08 09:02:50;;;;;;;7.38;1.73;;;14.40;96.30;;;;;;5095695;28;20039;-80
2022/05/08 09:05:16;;;;;;;5.88;1.88;;;14.40;96.60;;;;;;5088819;28;20032;-80
2022/05/08 09:07:49;;;;;;;7.82;2.22;;;14.40;96.90;;;;;;5077989;28;20051;-81
2022/05/08 09:10:21;;;;;;;10.90;2.10;;;14.60;96.60;;;;;;5094207;28;20040;-81
2022/05/08 09:12:53;;;;;;;8.95;2.05;;;14.70;96.30;;;;;;5085304;28;20044;-80
2022/05/08 09:15:29;;;;;;;12.10;1.90;;;14.80;96.00;;;;;;5089606;28;20039;-78
2022/05/08 09:18:09;;;;;;;7.28;1.75;;;14.80;96.10;;;;;;5085411;28;20138;-79
2022/05/08 09:20:41;;;;;;;6.32;2.03;;;15.00;95.50;;;;;;5085268;28;20043;-80
2022/05/08 09:23:21;;;;;;;8.93;1.98;;;14.90;96.00;;;;;;5111934;28;20408;-80
2022/05/08 09:26:08;;;;;;;11.70;2.42;;;15.10;95.80;;;;;;5075089;28;20032;-77
2022/05/08 09:28:42;;;;;;;5.38;1.88;;;15.30;94.50;;;;;;5087326;28;20064;-77
2022/05/08 09:31:08;;;;;;;6.40;1.77;;;15.30;94.90;;;;;;5078395;28;20039;-77
2022/05/08 09:34:01;;;;;;;8.43;2.67;;;15.20;94.60;;;;;;5106945;27;20124;-77
2022/05/08 09:36:27;;;;;;;7.75;2.20;;;15.20;94.10;;;;;;5102290;28;20518;-78
2022/05/08 09:38:58;;;;;;;7.57;1.95;;;15.10;94.40;;;;;;5090138;28;20091;-76
2022/05/08 09:41:28;;;;;;;8.70;2.15;;;15.20;93.50;;;;;;5104286;28;20043;-78
2022/05/08 09:44:03;;;;;;;7.22;1.83;;;15.20;93.40;;;;;;5107456;28;20044;-78
2022/05/08 09:46:36;;;;;;;8.05;1.83;;;15.10;93.20;;;;;;5087890;28;20048;-78
2022/05/08 09:49:02;;;;;;;4.95;1.60;;;15.00;91.90;;;;;;5089273;28;20067;-79
2022/05/08 09:51:32;;;;;;;5.95;1.75;;;14.90;92.50;;;;;;5074344;28;20184;-81
2022/05/08 09:53:58;;;;;;;5.93;1.92;;;14.90;92.30;;;;;;5107344;28;20086;-79
2022/05/08 09:56:25;;;;;;;11.65;1.98;;;14.90;92.40;;;;;;5089375;28;20770;-79
2022/05/08 09:58:51;;;;;;;5.78;2.08;;;15.00;92.70;;;;;;5107196;28;20051;-78
2022/05/08 10:01:17;;;;;;;9.88;2.55;;;15.00;92.30;;;;;;5071469;28;20047;-78
2022/05/08 10:03:43;;;;;;;4.53;1.80;;;15.00;92.10;;;;;;5088992;28;20154;-77
2022/05/08 10:06:10;;;;;;;9.13;2.25;;;15.10;91.20;;;;;;5075415;28;20139;-79
2022/05/08 10:08:38;;;;;;;6.10;2.10;;;15.00;91.70;;;;;;5079203;28;20078;-78
2022/05/08 10:13:57;;;;;;;8.65;1.95;;;15.00;91.30;;;;;;5103543;28;20039;-79
2022/05/08 10:16:41;;;;;;;9.68;2.28;;;14.90;92.20;;;;;;5090250;28;20039;-79
2022/05/08 10:19:22;;;;;;;6.05;1.85;;;14.90;92.10;;;;;;5086512;28;20058;-79
2022/05/08 10:21:56;;;;;;;8.63;2.08;;;14.90;92.40;;;;;;5085880;28;20044;-80
2022/05/08 10:24:39;;;;;;;7.85;1.70;;;14.90;91.40;;;;;;5088054;28;20043;-84
2022/05/08 10:27:15;;;;;;;5.13;1.60;;;14.90;91.30;;;;;;5103844;28;20047;-81
2022/05/08 10:29:48;;;;;;;7.90;2.00;;;14.90;91.30;;;;;;5107616;28;20097;-86
2022/05/08 10:32:34;;;;;;;7.72;1.80;;;14.90;92.10;;;;;;5091513;28;20043;-81
2022/05/08 10:35:10;;;;;;;9.60;2.33;;;15.00;92.40;;;;;;5096220;28;20128;-80
2022/05/08 10:37:39;;;;;;;9.15;1.98;;;15.00;92.60;;;;;;5097375;28;20035;-80
2022/05/08 10:40:28;;;;;;;8.75;2.10;;;15.00;92.20;;;;;;5113051;28;20048;-79
2022/05/08 10:42:55;;;;;;;6.85;1.98;;;15.00;91.00;;;;;;5111692;28;20085;-81
2022/05/08 10:45:33;;;;;;;9.32;2.05;;;14.90;91.00;;;;;;5104709;28;20047;-83
2022/05/08 10:48:01;;;;;;;13.98;2.40;;;14.80;90.80;;;;;;5092002;28;20550;-83
2022/05/08 10:50:27;;;;;;;7.32;1.80;;;15.00;91.10;;;;;;5091934;28;20048;-85
2022/05/08 10:52:53;;;;;;;7.40;1.90;;;14.80;90.70;;;;;;5097968;28;20045;-85
2022/05/08 10:55:19;;;;;;;10.73;1.80;;;14.90;91.10;;;;;;5093402;28;20135;-83
2022/05/08 10:57:47;;;;;;;7.95;2.30;;;14.90;90.50;;;;;;5093713;28;20044;-83
2022/05/08 11:00:16;;;;;;;8.88;2.17;;;15.00;88.00;;;;;;5089272;28;20075;-83
2022/05/08 11:02:47;;;;;;;12.15;1.90;;;15.00;90.20;;;;;;5100155;27;20036;-82
2022/05/08 11:05:16;;;;;;;5.63;1.65;;;15.00;91.00;;;;;;5087456;28;20044;-82
2022/05/08 11:07:50;;;;;;;7.80;1.85;;;15.00;90.90;;;;;;5095308;28;20061;-82
2022/05/08 11:10:18;;;;;;;7.82;2.05;;;15.10;90.40;;;;;;5079350;28;20044;-83
2022/05/08 11:12:57;;;;;;;6.47;1.80;;;15.20;90.20;;;;;;5108539;28;20395;-84
2022/05/08 11:15:23;;;;;;;8.70;1.95;;;15.30;90.00;;;;;;5098847;28;20360;-85
2022/05/08 11:18:06;;;;;;;10.05;2.05;;;15.30;90.20;;;;;;5109292;28;20039;-85
2022/05/08 11:20:33;;;;;;;7.18;1.88;;;15.30;90.30;;;;;;5097950;28;20092;-85
2022/05/08 11:22:59;;;;;;;9.18;1.92;;;15.40;89.10;;;;;;5079939;28;20055;-85
2022/05/08 11:25:25;;;;;;;6.35;1.75;;;15.40;88.10;;;;;;5080151;28;20446;-85
2022/05/08 11:27:55;;;;;;;5.68;1.65;;;15.50;86.00;;;;;;5114210;28;20081;-85
2022/05/08 11:30:32;;;;;;;4.63;1.70;;;15.50;86.50;;;;;;5092251;28;20119;-85
2022/05/08 11:36:11;;;;;;;6.75;1.95;;;15.60;85.50;;;;;;5109763;27;20043;-85
2022/05/08 11:38:44;;;;;;;9.32;2.25;;;15.60;85.50;;;;;;5099596;28;20044;-84
2022/05/08 11:41:15;;;;;;;10.73;2.03;;;15.60;86.40;;;;;;5111081;28;20040;-85
2022/05/08 11:43:47;;;;;;;11.45;2.03;;;15.70;84.80;;;;;;5087581;28;20044;-85
2022/05/08 11:46:16;;;;;;;8.40;2.33;;;15.70;83.20;;;;;;5092869;28;20036;-85
2022/05/08 11:48:49;;;;;;;10.80;1.92;;;15.70;84.50;;;;;;5093581;28;20048;-85
2022/05/08 11:51:18;;;;;;;9.55;2.35;;;15.80;85.10;;;;;;5111802;28;20119;-85
2022/05/08 11:53:44;;;;;;;8.60;1.95;;;15.90;84.70;;;;;;5101337;27;20031;-85
2022/05/08 11:56:40;;;;;;;10.55;2.50;;;16.00;83.70;;;;;;5114290;27;20070;-85
2022/05/08 11:59:17;;;;;;;8.10;1.95;;;16.20;82.00;;;;;;5070915;28;20068;-85
2022/05/08 12:01:52;;;;;;;7.22;2.35;;;16.20;83.40;;;;;;5073607;28;20028;-85
2022/05/08 12:04:23;;;;;;;7.82;2.13;;;16.20;81.40;;;;;;5097110;28;20116;-84
2022/05/08 12:07:01;;;;;;;10.15;2.30;;;16.20;82.70;;;;;;5064003;28;20532;-85
2022/05/08 12:09:33;;;;;;;4.47;1.83;;;16.30;80.00;;;;;;5096597;28;20045;-85
2022/05/08 12:12:22;;;;;;;6.35;2.05;;;16.30;80.60;;;;;;5092715;28;20031;-85
2022/05/08 12:14:48;;;;;;;14.63;2.72;;;16.40;78.50;;;;;;5096351;28;20027;-85
2022/05/08 12:17:14;;;;;;;5.40;2.20;;;16.50;79.30;;;;;;5059637;28;20422;-85
2022/05/08 12:19:53;;;;;;;6.63;2.50;;;16.60;78.80;;;;;;5094995;27;20043;-88
2022/05/08 12:22:24;;;;;;;7.95;2.10;;;16.60;78.60;;;;;;5099976;27;20045;-85
2022/05/08 12:24:51;;;;;;;11.93;2.00;;;16.60;78.00;;;;;;5082407;27;20054;-85
2022/05/08 12:27:17;;;;;;;8.75;2.15;;;16.70;78.10;;;;;;5097953;27;20061;-84
2022/05/08 12:29:44;;;;;;;6.28;2.00;;;16.80;76.80;;;;;;5065488;27;20035;-85
2022/05/08 12:32:10;;;;;;;7.22;2.00;;;17.00;77.40;;;;;;5081854;27;20054;-85
2022/05/08 12:34:35;;;;;;;5.30;2.03;;;17.10;76.70;;;;;;5099672;27;20085;-85
2022/05/08 12:37:01;;;;;;;8.52;2.15;;;17.20;76.10;;;;;;5096913;27;20078;-85
2022/05/08 12:39:27;;;;;;;6.65;2.10;;;17.30;75.00;;;;;;5063776;27;20443;-85
2022/05/08 12:41:53;;;;;;;7.68;2.45;;;17.40;74.70;;;;;;5068211;27;20035;-85
2022/05/08 12:44:18;;;;;;;8.75;1.60;;;17.50;74.00;;;;;;5081619;27;20035;-86
2022/05/08 12:46:44;;;;;;;8.98;2.40;;;17.70;76.30;;;;;;5097355;27;20453;-85
2022/05/08 12:49:13;;;;;;;4.65;1.55;;;18.00;74.50;;;;;;5081753;27;20463;-86
2022/05/08 12:51:40;;;;;;;9.15;2.10;;;18.40;74.40;;;;;;5066266;27;20047;-86
2022/05/08 12:54:06;;;;;;;7.55;2.50;;;18.70;74.00;;;;;;5099836;27;20058;-85
2022/05/08 12:56:33;;;;;;;5.13;1.92;;;19.10;73.10;;;;;;5077909;28;20048;-86
2022/05/08 13:01:44;;;;;;;9.50;2.35;;;19.90;73.10;;;;;;5114991;27;20531;-86
2022/05/08 13:04:11;;;;;;;6.40;1.83;;;20.30;72.10;;;;;;5076860;27;20073;-86
2022/05/08 13:06:37;;;;;;;6.30;1.92;;;20.80;71.00;;;;;;5094377;27;20779;-86
2022/05/08 13:09:05;;;;;;;8.15;2.35;;;21.20;67.10;;;;;;5080899;27;20506;-85
2022/05/08 13:11:31;;;;;;;11.00;2.65;;;21.30;66.60;;;;;;5096925;27;20359;-85
2022/05/08 13:13:57;;;;;;;12.05;2.47;;;21.50;63.40;;;;;;5078578;28;20051;-86